createdAt,value
2019-03-04T00:00:45.587Z,33.70
2019-03-04T00:03:12.289Z,34.13
2019-03-04T00:05:38.556Z,36.23
2019-03-04T00:08:05.145Z,34.37
2019-03-04T00:10:31.437Z,35.07
2019-03-04T00:12:57.602Z,33.83
2019-03-04T00:15:23.768Z,32.33
2019-03-04T00:17:50.053Z,36.20
2019-03-04T00:20:16.209Z,35.33
2019-03-04T00:22:42.372Z,33.00
2019-03-04T00:25:08.570Z,36.83
2019-03-04T00:27:34.723Z,36.07
2019-03-04T00:30:00.883Z,33.07
2019-03-04T00:32:27.129Z,27.63
2019-03-04T00:34:53.383Z,27.37
2019-03-04T00:37:19.550Z,26.27
2019-03-04T00:39:45.741Z,24.77
2019-03-04T00:42:11.894Z,26.17
2019-03-04T00:44:38.052Z,27.23
2019-03-04T00:47:04.335Z,25.03
2019-03-04T00:49:30.492Z,23.57
2019-03-04T00:51:56.654Z,22.77
2019-03-04T00:54:22.855Z,23.37
2019-03-04T00:56:49.004Z,23.50
2019-03-04T00:59:15.158Z,25.70
2019-03-04T01:01:41.352Z,23.17
2019-03-04T01:04:07.605Z,23.63
2019-03-04T01:06:33.881Z,23.47
2019-03-04T01:09:00.084Z,26.13
2019-03-04T01:11:26.228Z,27.60
2019-03-04T01:13:52.387Z,26.73
2019-03-04T01:16:18.576Z,27.23
2019-03-04T01:18:44.733Z,28.40
2019-03-04T01:21:10.891Z,28.10
2019-03-04T01:23:37.086Z,27.90
2019-03-04T01:26:03.243Z,32.13
2019-03-04T01:28:29.418Z,32.97
2019-03-04T01:30:55.601Z,33.73
2019-03-04T01:33:21.869Z,34.70
2019-03-04T01:35:48.131Z,32.90
2019-03-04T01:38:14.319Z,36.47
2019-03-04T01:40:40.479Z,36.83
2019-03-04T01:43:06.735Z,34.43
2019-03-04T01:45:32.918Z,33.43
2019-03-04T01:47:59.085Z,30.53
2019-03-04T01:50:25.248Z,28.00
2019-03-04T01:52:51.432Z,25.70
2019-03-04T01:55:17.906Z,22.73
2019-03-04T01:57:44.161Z,17.50
2019-03-04T02:00:16.138Z,20.80
2019-03-04T02:02:43.098Z,19.53
2019-03-04T02:05:09.356Z,21.27
2019-03-04T02:07:35.636Z,19.70
2019-03-04T02:10:03.611Z,16.10
2019-03-04T02:12:29.769Z,19.17
2019-03-04T02:14:55.966Z,22.30
2019-03-04T02:17:22.139Z,19.87
2019-03-04T02:19:48.272Z,17.20
2019-03-04T02:22:14.578Z,19.70
2019-03-04T02:24:40.732Z,20.07
2019-03-04T02:27:06.901Z,20.43
2019-03-04T02:29:33.206Z,17.53
2019-03-04T02:31:59.357Z,18.80
2019-03-04T02:34:25.668Z,16.80
2019-03-04T02:36:51.887Z,21.53
2019-03-04T02:39:18.029Z,18.77
2019-03-04T02:41:44.199Z,19.07
2019-03-04T02:44:10.389Z,21.77
2019-03-04T02:46:36.547Z,21.17
2019-03-04T02:49:03.009Z,22.40
2019-03-04T02:51:29.293Z,19.10
2019-03-04T02:53:55.451Z,18.40
2019-03-04T02:56:21.719Z,14.93
2019-03-04T02:58:47.931Z,17.00
2019-03-04T03:01:14.502Z,13.10
2019-03-04T03:03:40.663Z,14.83
2019-03-04T03:06:06.849Z,14.80
2019-03-04T03:08:33.280Z,15.23
2019-03-04T03:10:59.441Z,16.90
2019-03-04T03:13:25.626Z,20.47
2019-03-04T03:15:51.778Z,20.37
2019-03-04T03:18:17.935Z,20.23
2019-03-04T03:20:44.135Z,19.63
2019-03-04T03:23:10.297Z,21.10
2019-03-04T03:25:36.465Z,23.73
2019-03-04T03:28:02.760Z,28.03
2019-03-04T03:30:28.923Z,26.40
2019-03-04T03:32:55.286Z,24.03
2019-03-04T03:35:21.527Z,20.93
2019-03-04T03:37:47.701Z,23.93
2019-03-04T03:40:18.950Z,26.73
2019-03-04T03:42:45.240Z,24.13
2019-03-04T03:45:11.390Z,24.87
2019-03-04T03:47:37.684Z,25.93
2019-03-04T03:50:07.570Z,28.30
2019-03-04T03:52:33.708Z,36.07
2019-03-04T03:54:59.863Z,28.53
2019-03-04T03:57:26.055Z,25.67
2019-03-04T03:59:52.232Z,25.53
2019-03-04T04:02:18.394Z,26.53
2019-03-04T04:04:44.593Z,26.73
2019-03-04T04:07:10.760Z,25.97
2019-03-04T04:09:37.023Z,25.87
2019-03-04T04:12:03.205Z,26.67
2019-03-04T04:14:29.577Z,27.50
2019-03-04T04:16:55.719Z,27.63
2019-03-04T04:19:21.924Z,25.33
2019-03-04T04:21:48.190Z,27.63
2019-03-04T04:24:14.463Z,31.97
2019-03-04T04:26:40.660Z,27.73
2019-03-04T04:29:08.729Z,28.80
2019-03-04T04:31:34.995Z,25.40
2019-03-04T04:34:01.190Z,24.77
2019-03-04T04:36:28.249Z,20.70
2019-03-04T04:38:54.522Z,18.20
2019-03-04T04:41:20.709Z,15.97
2019-03-04T04:43:46.870Z,11.20
2019-03-04T04:46:13.018Z,11.37
2019-03-04T04:48:39.204Z,30.70
2019-03-04T04:51:05.469Z,14.07
2019-03-04T04:53:31.725Z,22.27
2019-03-04T04:55:57.927Z,11.37
2019-03-04T04:58:24.081Z,15.00
2019-03-04T05:00:50.244Z,12.80
2019-03-04T05:03:16.445Z,13.57
2019-03-04T05:05:42.700Z,19.43
2019-03-04T05:08:08.963Z,16.30
2019-03-04T05:10:35.160Z,12.93
2019-03-04T05:13:01.316Z,12.03
2019-03-04T05:15:27.497Z,9.47
2019-03-04T05:17:53.687Z,10.47
2019-03-04T05:20:21.677Z,9.83
2019-03-04T05:22:47.945Z,11.23
2019-03-04T05:25:14.222Z,9.80
2019-03-04T05:27:40.481Z,10.90
2019-03-04T05:30:10.237Z,10.93
2019-03-04T05:32:36.433Z,20.17
2019-03-04T05:35:04.206Z,21.97
2019-03-04T05:37:30.517Z,23.40
2019-03-04T05:39:56.715Z,26.00
2019-03-04T05:42:24.542Z,26.30
2019-03-04T05:44:50.827Z,29.17
2019-03-04T05:47:17.045Z,27.90
2019-03-04T05:49:43.204Z,27.73
2019-03-04T05:52:09.459Z,23.70
2019-03-04T05:54:35.650Z,23.00
2019-03-04T05:57:01.837Z,25.13
2019-03-04T05:59:28.001Z,22.33
2019-03-04T06:01:57.908Z,19.57
2019-03-04T06:04:24.061Z,20.20
2019-03-04T06:06:52.134Z,23.17
2019-03-04T06:09:18.841Z,24.97
2019-03-04T06:11:44.999Z,25.87
2019-03-04T06:14:11.156Z,24.57
2019-03-04T06:16:46.799Z,21.93
2019-03-04T06:19:05.400Z,19.43
2019-03-04T06:21:31.564Z,19.57
2019-03-04T06:23:57.758Z,21.33
2019-03-04T06:26:23.931Z,20.47
2019-03-04T06:28:50.204Z,17.73
2019-03-04T06:31:16.515Z,19.60
2019-03-04T06:33:42.660Z,17.80
2019-03-04T06:36:08.941Z,22.57
2019-03-04T06:38:35.183Z,21.70
2019-03-04T06:41:01.340Z,19.83
2019-03-04T06:43:27.604Z,18.07
2019-03-04T06:45:53.804Z,17.77
2019-03-04T06:48:20.105Z,16.00
2019-03-04T06:51:14.909Z,16.40
2019-03-04T06:53:47.556Z,15.70
2019-03-04T06:56:31.737Z,16.70
2019-03-04T06:59:01.508Z,16.77
2019-03-04T07:01:31.290Z,16.90
2019-03-04T07:04:01.095Z,16.43
2019-03-04T07:06:27.263Z,12.83
2019-03-04T07:08:59.488Z,14.33
2019-03-04T07:11:25.673Z,22.50
2019-03-04T07:13:51.843Z,17.57
2019-03-04T07:16:18.015Z,16.83
2019-03-04T07:18:44.207Z,13.90
2019-03-04T07:21:10.371Z,14.83
2019-03-04T07:23:36.664Z,14.00
2019-03-04T07:26:02.868Z,13.00
2019-03-04T07:28:29.025Z,14.17
2019-03-04T07:30:55.287Z,13.90
2019-03-04T07:33:21.481Z,15.67
2019-03-04T07:35:47.651Z,14.77
2019-03-04T07:38:23.205Z,14.47
2019-03-04T07:40:49.495Z,15.47
2019-03-04T07:43:15.655Z,15.07
2019-03-04T07:45:41.824Z,12.30
2019-03-04T07:48:08.031Z,14.00
2019-03-04T07:50:34.208Z,10.70
2019-03-04T07:53:00.376Z,8.77
2019-03-04T07:55:26.578Z,9.07
2019-03-04T07:57:52.856Z,8.13
2019-03-04T08:00:19.136Z,11.87
2019-03-04T08:02:45.432Z,9.33
2019-03-04T08:05:12.602Z,10.13
2019-03-04T08:07:41.469Z,14.73
2019-03-04T08:10:33.730Z,15.40
2019-03-04T08:13:15.553Z,12.97
2019-03-04T08:15:41.756Z,12.30
2019-03-04T08:18:07.913Z,13.00
2019-03-04T08:20:34.187Z,14.23
2019-03-04T08:23:00.391Z,13.53
2019-03-04T08:25:26.558Z,13.63
2019-03-04T08:27:52.714Z,14.90
2019-03-04T08:30:20.726Z,14.87
2019-03-04T08:32:46.891Z,17.20
2019-03-04T08:35:13.149Z,16.83
2019-03-04T08:37:39.353Z,15.87
2019-03-04T08:40:08.925Z,16.03
2019-03-04T08:42:35.098Z,16.63
2019-03-04T08:45:01.285Z,16.50
2019-03-04T08:47:27.449Z,15.47
2019-03-04T08:49:53.606Z,13.80
2019-03-04T08:52:19.817Z,13.83
2019-03-04T08:54:45.987Z,14.97
2019-03-04T08:57:12.169Z,14.43
2019-03-04T08:59:38.355Z,15.93
2019-03-04T09:02:05.527Z,14.23
2019-03-04T09:04:31.680Z,14.57
2019-03-04T09:06:57.975Z,15.40
2019-03-04T09:09:24.399Z,14.27
2019-03-04T09:11:50.551Z,15.73
2019-03-04T09:14:16.877Z,14.10
2019-03-04T09:16:43.044Z,14.20
2019-03-04T09:19:09.304Z,15.43
2019-03-04T09:21:35.597Z,11.93
2019-03-04T09:24:01.861Z,12.17
2019-03-04T09:26:28.022Z,11.80
2019-03-04T09:28:54.323Z,10.37
2019-03-04T09:31:20.472Z,12.33
2019-03-04T09:33:46.641Z,11.60
2019-03-04T09:36:12.844Z,9.50
2019-03-04T09:38:39.004Z,9.67
2019-03-04T09:41:05.157Z,9.43
2019-03-04T09:43:31.383Z,7.73
2019-03-04T09:45:57.691Z,6.77
2019-03-04T09:48:23.847Z,7.07
2019-03-04T09:50:50.139Z,6.17
2019-03-04T09:53:16.298Z,7.35
2019-03-04T09:55:42.465Z,9.43
2019-03-04T09:58:08.771Z,7.60
2019-03-04T10:00:44.740Z,7.63
2019-03-04T10:03:40.282Z,5.83
2019-03-04T10:06:19.246Z,5.13
2019-03-04T10:09:01.140Z,4.57
2019-03-04T10:11:55.213Z,5.93
2019-03-04T10:14:27.974Z,6.90
2019-03-04T10:17:03.538Z,5.97
2019-03-04T10:19:56.313Z,5.40
2019-03-04T10:22:29.103Z,4.20
2019-03-04T10:25:22.884Z,5.87
2019-03-04T10:28:13.742Z,5.20
2019-03-04T10:30:52.749Z,4.37
2019-03-04T10:33:25.468Z,6.37
2019-03-04T10:36:01.059Z,5.33
2019-03-04T10:38:43.130Z,4.23
2019-03-04T10:41:15.981Z,4.80
2019-03-04T10:43:58.144Z,4.67
2019-03-04T10:46:44.807Z,3.80
2019-03-04T10:49:10.967Z,4.50
2019-03-04T10:51:37.122Z,3.90
2019-03-04T10:54:03.406Z,4.10
2019-03-04T10:56:29.583Z,4.80
2019-03-04T10:58:55.740Z,4.27
2019-03-04T11:01:30.182Z,4.03
2019-03-04T11:03:50.213Z,4.37
2019-03-04T11:06:16.367Z,3.80
2019-03-04T11:08:42.671Z,3.80
2019-03-04T11:11:08.828Z,3.10
2019-03-04T11:13:34.984Z,3.80
2019-03-04T11:16:01.277Z,4.33
2019-03-04T11:18:27.547Z,4.07
2019-03-04T11:20:53.804Z,3.87
2019-03-04T11:23:20.110Z,3.90
2019-03-04T11:25:46.295Z,4.50
2019-03-04T11:28:12.461Z,3.90
2019-03-04T11:30:38.754Z,3.97
2019-03-04T11:33:04.920Z,3.50
2019-03-04T11:35:31.083Z,3.83
2019-03-04T11:37:57.267Z,3.80
2019-03-04T11:40:35.138Z,4.27
2019-03-04T11:43:01.335Z,3.27
2019-03-04T11:45:27.599Z,3.90
2019-03-04T11:47:53.858Z,3.90
2019-03-04T11:50:20.058Z,3.83
2019-03-04T11:52:46.226Z,3.53
2019-03-04T11:55:15.083Z,3.93
2019-03-04T11:57:41.282Z,3.47
2019-03-04T12:00:36.145Z,3.17
2019-03-04T12:03:02.452Z,3.67
2019-03-04T12:05:28.615Z,3.37
2019-03-04T12:07:54.777Z,3.67
2019-03-04T12:10:21.416Z,3.20
2019-03-04T12:12:47.577Z,3.73
2019-03-04T12:15:18.472Z,2.23
2019-03-04T12:17:44.762Z,2.90
2019-03-04T12:20:12.359Z,2.80
2019-03-04T12:22:38.520Z,2.30
2019-03-04T12:25:08.327Z,2.33
2019-03-04T12:27:34.482Z,2.70
2019-03-04T12:30:00.642Z,2.70
2019-03-04T12:32:27.952Z,2.53
2019-03-04T12:34:54.168Z,2.37
2019-03-04T12:37:20.417Z,2.30
2019-03-04T12:39:46.606Z,2.83
2019-03-04T12:42:13.018Z,2.53
2019-03-04T12:44:39.174Z,2.87
2019-03-04T12:47:05.371Z,2.53
2019-03-04T12:49:31.524Z,2.83
2019-03-04T12:51:57.692Z,2.73
2019-03-04T12:54:23.877Z,2.20
2019-03-04T12:56:50.136Z,2.20
2019-03-04T12:59:16.294Z,2.37
2019-03-04T13:01:42.489Z,1.67
2019-03-04T13:04:08.653Z,2.47
2019-03-04T13:06:34.818Z,2.00
2019-03-04T13:09:01.021Z,1.90
2019-03-04T13:11:27.280Z,1.70
2019-03-04T13:13:53.442Z,2.30
2019-03-04T13:16:19.640Z,2.20
2019-03-04T13:18:45.801Z,1.90
2019-03-04T13:21:11.977Z,2.10
2019-03-04T13:23:38.160Z,1.73
2019-03-04T13:26:04.314Z,1.50
2019-03-04T13:28:30.472Z,2.00
2019-03-04T13:30:56.767Z,1.73
2019-03-04T13:33:22.929Z,2.33
2019-03-04T13:35:49.081Z,1.70
2019-03-04T13:38:15.284Z,1.90
2019-03-04T13:40:41.840Z,1.70
2019-03-04T13:43:07.997Z,1.60
2019-03-04T13:45:34.292Z,1.77
2019-03-04T13:48:00.556Z,1.73
2019-03-04T13:50:30.589Z,1.87
2019-03-04T13:52:56.980Z,1.80
2019-03-04T13:55:23.239Z,1.77
2019-03-04T13:57:49.513Z,2.03
2019-03-04T14:00:18.911Z,2.23
2019-03-04T14:02:45.182Z,2.10
2019-03-04T14:05:14.055Z,2.00
2019-03-04T14:07:40.245Z,2.10
2019-03-04T14:10:31.176Z,2.20
2019-03-04T14:12:57.486Z,2.37
2019-03-04T14:15:53.100Z,2.60
2019-03-04T14:18:19.393Z,3.03
2019-03-04T14:20:45.560Z,2.70
2019-03-04T14:23:11.738Z,2.90
2019-03-04T14:25:38.028Z,2.57
2019-03-04T14:28:04.291Z,3.50
2019-03-04T14:30:30.451Z,2.80
2019-03-04T14:32:56.642Z,3.80
2019-03-04T14:35:22.805Z,3.90
2019-03-04T14:37:48.972Z,2.73
2019-03-04T14:40:16.476Z,3.17
2019-03-04T14:42:42.631Z,2.90
2019-03-04T14:45:17.734Z,5.73
2019-03-04T14:47:43.925Z,3.97
2019-03-04T14:50:38.956Z,3.70
2019-03-04T14:53:05.266Z,3.10
2019-03-04T14:55:37.296Z,2.03
2019-03-04T14:58:03.456Z,3.90
2019-03-04T15:00:33.057Z,2.80
2019-03-04T15:02:59.217Z,3.20
2019-03-04T15:05:25.490Z,4.47
2019-03-04T15:07:51.778Z,3.67
2019-03-04T15:10:17.957Z,3.47
2019-03-04T15:12:44.120Z,3.87
2019-03-04T15:15:21.656Z,3.80
2019-03-04T15:17:47.830Z,3.97
2019-03-04T15:20:19.776Z,3.27
2019-03-04T15:22:45.969Z,6.77
2019-03-04T15:25:20.993Z,6.70
2019-03-04T15:27:46.833Z,11.20
2019-03-04T15:30:13.126Z,10.70
2019-03-04T15:32:39.289Z,18.50
2019-03-04T15:35:07.754Z,25.50
2019-03-04T15:37:34.062Z,18.50
2019-03-04T15:40:00.283Z,26.47
2019-03-04T15:42:26.571Z,23.00
2019-03-04T15:44:52.772Z,36.70
2019-03-04T15:47:19.035Z,22.07
2019-03-04T15:49:45.191Z,22.93
2019-03-04T15:52:11.496Z,16.57
2019-03-04T15:54:37.664Z,15.80
2019-03-04T15:57:04.430Z,13.27
2019-03-04T15:59:30.827Z,12.23
2019-03-04T16:02:00.712Z,13.67
2019-03-04T16:04:26.973Z,14.47
2019-03-04T16:06:53.169Z,33.50
2019-03-04T16:09:20.537Z,21.47
2019-03-04T16:11:46.808Z,23.33
2019-03-04T16:14:12.990Z,25.30
2019-03-04T16:16:39.157Z,20.67
2019-03-04T16:19:05.326Z,13.43
2019-03-04T16:21:31.524Z,19.13
2019-03-04T16:23:57.690Z,31.93
2019-03-04T16:26:23.944Z,23.67
2019-03-04T16:28:50.252Z,11.73
2019-03-04T16:31:16.408Z,11.90
2019-03-04T16:33:42.976Z,15.17
2019-03-04T16:36:09.172Z,21.80
2019-03-04T16:38:35.339Z,22.13
2019-03-04T16:41:01.501Z,44.17
2019-03-04T16:43:27.691Z,44.03
2019-03-04T16:45:53.943Z,47.10
2019-03-04T16:48:20.113Z,31.20
2019-03-04T16:50:46.705Z,22.13
2019-03-04T16:53:25.284Z,15.83
2019-03-04T16:55:51.957Z,17.43
2019-03-04T16:58:18.132Z,11.00
2019-03-04T17:13:25.873Z,15.17
2019-03-04T17:15:52.061Z,12.13
2019-03-04T17:18:18.335Z,8.77
2019-03-04T17:20:44.640Z,13.37
2019-03-04T17:23:10.813Z,10.87
2019-03-04T17:25:37.466Z,11.50
2019-03-04T17:28:03.762Z,12.33
2019-03-04T17:30:30.037Z,13.20
2019-03-04T17:32:56.203Z,12.63
2019-03-04T17:35:23.486Z,17.50
2019-03-04T17:37:50.567Z,25.57
2019-03-04T17:40:25.044Z,25.73
2019-03-04T17:46:16.557Z,25.60
2019-03-04T17:48:42.722Z,21.10
2019-03-04T17:51:08.994Z,21.87
2019-03-04T17:53:35.309Z,18.67
2019-03-04T17:56:01.578Z,17.63
2019-03-04T17:58:27.841Z,12.73
2019-03-04T18:00:55.889Z,13.60
2019-03-04T18:03:22.168Z,15.30
2019-03-04T18:05:48.443Z,10.83
2019-03-04T18:08:14.646Z,12.27
2019-03-04T18:10:41.852Z,13.37
2019-03-04T18:16:53.948Z,8.83
2019-03-04T18:19:20.107Z,9.43
2019-03-04T18:21:46.392Z,9.77
2019-03-04T18:24:12.571Z,8.23
2019-03-04T18:26:41.140Z,8.97
2019-03-04T18:29:38.143Z,8.10
2019-03-04T18:32:16.747Z,7.87
2019-03-04T18:35:29.076Z,9.77
2019-03-04T18:38:17.096Z,9.57
2019-03-04T18:40:49.703Z,10.93
2019-03-04T18:43:28.495Z,9.93
2019-03-04T18:46:15.183Z,10.27
2019-03-04T18:48:54.867Z,9.50
2019-03-04T19:05:06.986Z,8.43
2019-03-04T19:07:33.171Z,8.87
2019-03-04T19:09:59.334Z,6.63
2019-03-04T19:12:25.566Z,8.87
2019-03-04T19:14:51.831Z,8.33
2019-03-04T19:17:18.086Z,8.93
2019-03-04T19:19:44.285Z,7.60
2019-03-04T19:22:12.387Z,10.57
2019-03-04T19:24:38.526Z,7.50
2019-03-04T19:27:04.727Z,5.90
2019-03-04T19:29:31.237Z,6.77
2019-03-04T19:35:36.289Z,6.87
2019-03-04T19:38:02.458Z,7.03
2019-03-04T19:40:28.933Z,7.17
2019-03-04T19:42:55.144Z,6.60
2019-03-04T19:45:21.303Z,7.15
2019-03-04T19:47:47.572Z,7.27
2019-03-04T19:50:14.973Z,6.97
2019-03-04T19:52:43.911Z,6.90
2019-03-04T19:55:12.719Z,6.80
2019-03-04T19:57:39.503Z,5.80
2019-03-04T20:00:18.934Z,6.30
2019-03-04T20:02:45.330Z,6.23
2019-03-04T20:05:11.653Z,6.13
2019-03-04T20:07:37.819Z,6.23
2019-03-04T20:10:08.020Z,7.47
2019-03-04T20:12:34.271Z,7.37
2019-03-04T20:15:00.536Z,7.23
2019-03-04T20:17:26.851Z,7.37
2019-03-04T20:19:53.017Z,8.13
2019-03-04T20:22:19.207Z,8.37
2019-03-04T20:24:45.493Z,7.97
2019-03-04T20:27:11.760Z,8.20
2019-03-04T20:29:37.922Z,6.87
2019-03-04T20:32:04.123Z,6.03
2019-03-04T20:34:30.292Z,5.53
2019-03-04T20:36:56.466Z,5.67
2019-03-04T20:39:22.848Z,5.20
2019-03-04T20:41:49.020Z,5.30
2019-03-04T20:44:15.191Z,5.57
2019-03-04T20:46:41.404Z,5.27
2019-03-04T20:49:07.614Z,5.00
2019-03-04T20:51:33.834Z,5.60
2019-03-04T20:54:00.036Z,5.30
2019-03-04T20:56:26.308Z,4.77
2019-03-04T20:58:52.507Z,5.00
2019-03-04T21:01:19.172Z,5.07
2019-03-04T21:03:45.442Z,5.43
2019-03-04T21:06:11.764Z,5.03
2019-03-04T21:08:38.060Z,5.50
2019-03-04T21:11:04.236Z,5.33
2019-03-04T21:13:35.940Z,4.97
2019-03-04T21:15:58.503Z,5.10
2019-03-04T21:18:24.845Z,5.37
2019-03-04T21:20:51.009Z,5.27
2019-03-04T21:23:17.314Z,5.00
2019-03-04T21:26:10.913Z,5.20
2019-03-04T21:28:55.492Z,5.27
2019-03-04T21:31:40.299Z,5.20
2019-03-04T21:34:11.311Z,4.93
2019-03-04T21:36:53.480Z,4.70
2019-03-04T21:39:27.842Z,5.03
2019-03-04T21:42:06.740Z,4.70
2019-03-04T21:44:54.823Z,5.37
2019-03-04T21:47:25.006Z,5.13
2019-03-04T21:49:51.567Z,5.23
2019-03-04T21:56:23.182Z,5.00
2019-03-04T21:58:49.350Z,5.40
2019-03-04T22:01:22.228Z,5.43
2019-03-04T22:03:48.577Z,4.80
2019-03-04T22:06:14.907Z,5.07
2019-03-04T22:08:41.212Z,5.67
2019-03-04T22:11:07.550Z,5.80
2019-03-04T22:13:33.837Z,5.07
2019-03-04T22:16:01.906Z,5.90
2019-03-04T22:18:28.221Z,5.57
2019-03-04T22:20:54.514Z,5.20
2019-03-04T22:23:20.826Z,5.80
2019-03-04T22:26:01.599Z,5.94
2019-03-04T22:28:22.235Z,5.13
2019-03-04T22:30:48.539Z,5.27
2019-03-04T22:33:14.887Z,4.83
2019-03-04T22:35:41.151Z,4.80
2019-03-04T22:38:07.451Z,4.87
2019-03-04T22:40:33.775Z,4.93
2019-03-04T22:43:00.076Z,5.60
2019-03-04T22:45:26.366Z,5.30
2019-03-04T22:47:52.712Z,5.40
2019-03-04T22:50:20.608Z,5.63
2019-03-04T22:52:46.905Z,5.17
2019-03-04T22:55:16.158Z,6.67
2019-03-04T22:57:42.436Z,5.33
2019-03-04T23:00:38.685Z,6.57
2019-03-04T23:03:04.972Z,5.57
2019-03-04T23:05:31.266Z,5.10
2019-03-04T23:07:57.522Z,5.43
2019-03-04T23:10:24.210Z,5.37
2019-03-04T23:12:51.204Z,5.63
2019-03-04T23:15:22.431Z,5.50
2019-03-04T23:17:48.717Z,5.63
2019-03-04T23:20:15.020Z,5.40
2019-03-04T23:22:41.367Z,4.60
2019-03-04T23:25:10.948Z,5.73
2019-03-04T23:27:37.244Z,5.03
2019-03-04T23:30:09.881Z,4.97
2019-03-04T23:32:36.172Z,5.23
2019-03-04T23:35:02.672Z,5.27
2019-03-04T23:37:29.023Z,5.57
2019-03-04T23:39:55.219Z,4.80
2019-03-04T23:42:21.509Z,5.20
2019-03-04T23:44:47.700Z,4.37
2019-03-04T23:47:14.000Z,5.13
2019-03-04T23:49:40.173Z,5.13
2019-03-04T23:52:06.486Z,5.03
2019-03-04T23:54:32.676Z,5.10
2019-03-04T23:56:58.958Z,5.07
2019-03-04T23:59:25.173Z,5.53
